Terminal Aerodrome Forecast
Issued by NWS Sioux Falls, SD

Home | Current Version | Previous Version | Graphics & Text | Print | Product List | Glossary Off
Versions: 1 2 3 4 5 6 7 8 9 10 11 12 13 14 15

000
FTUS43 KFSD 240522
TAFFSD
TAF
KFSD 240522Z 2406/2506 19004KT P6SM SCT120 BKN250
     FM240900 VRB03KT 5SM BR SCT200
     FM241300 19004KT P6SM SCT150
     FM241900 16007KT P6SM SCT150
     FM250000 12007KT P6SM FEW060 BKN120=

USA.gov is the U.S. government's official web portal to all federal, state and local government web resources and services.